Time;durP1;ratioP1;P1;durP2;ratioP2;P2;SDS_P1;SDS_P2;PMS_P1;PMS_P2;Temp;Humidity;BMP_temperature;BMP_pressure;BME280_temperature;BME280_humidity;BME280_pressure;Samples;Min_cycle;Max_cycle;Signal;HPM_P1;HPM_P2
2022/08/25 00:00:46;;;;;;;7.07;5.88;;;;;;;21.37;60.24;93680.00;4806484;29;20042;-91
2022/08/25 00:03:12;;;;;;;8.50;6.43;;;;;;;21.38;60.50;93673.97;4814620;29;20058;-92
2022/08/25 00:05:38;;;;;;;6.60;5.50;;;;;;;21.38;60.31;93670.47;4814842;29;20375;-91
2022/08/25 00:08:05;;;;;;;8.23;6.53;;;;;;;21.39;60.23;93677.47;4829365;29;20053;-90
2022/08/25 00:10:31;;;;;;;8.43;6.40;;;;;;;21.38;60.21;93673.97;4814705;29;20502;-91
2022/08/25 00:12:57;;;;;;;8.90;6.82;;;;;;;21.36;60.44;93668.25;4814963;29;20049;-92
2022/08/25 00:15:22;;;;;;;7.97;6.30;;;;;;;21.38;60.52;93662.97;4814286;29;20046;-91
2022/08/25 00:17:49;;;;;;;8.05;6.50;;;;;;;21.37;60.29;93661.47;4815038;29;20510;-91
2022/08/25 00:20:14;;;;;;;8.00;6.25;;;;;;;21.36;60.54;93665.50;4780650;29;20047;-91
2022/08/25 00:22:40;;;;;;;8.23;5.97;;;;;;;21.37;60.50;93658.00;4814401;29;20463;-91
2022/08/25 00:25:06;;;;;;;6.20;5.47;;;;;;;21.34;60.56;93659.78;4813699;29;20038;-91
2022/08/25 00:27:31;;;;;;;8.57;6.53;;;;;;;21.37;60.25;93660.75;4813714;29;20078;-91
2022/08/25 00:29:57;;;;;;;8.52;5.78;;;;;;;21.35;60.43;93660.50;4802599;29;20045;-91
2022/08/25 00:32:24;;;;;;;7.78;6.32;;;;;;;21.35;60.47;93663.25;4811915;29;20046;-92
2022/08/25 00:34:49;;;;;;;8.50;6.43;;;;;;;21.35;60.49;93653.00;4814347;29;20061;-91
2022/08/25 00:37:16;;;;;;;10.63;6.88;;;;;;;21.36;60.32;93662.75;4804482;29;20042;-92
2022/08/25 00:39:41;;;;;;;7.38;5.75;;;;;;;21.35;60.42;93658.50;4795399;29;20043;-92
2022/08/25 00:42:07;;;;;;;9.20;6.43;;;;;;;21.37;60.40;93658.00;4807997;29;20049;-93
2022/08/25 00:44:34;;;;;;;7.82;6.00;;;;;;;21.37;60.42;93652.50;4814437;29;20049;-91
2022/08/25 00:47:00;;;;;;;9.05;6.78;;;;;;;21.36;60.48;93664.75;4814407;29;20093;-93
2022/08/25 00:49:30;;;;;;;8.57;6.18;;;;;;;21.37;60.52;93663.50;4823895;29;20043;-91
2022/08/25 00:52:00;;;;;;;7.88;5.95;;;;;;;21.36;60.54;93662.75;4806902;29;20138;-90
2022/08/25 00:54:29;;;;;;;8.23;6.43;;;;;;;21.35;60.58;93663.25;4844223;29;20046;-91
2022/08/25 00:56:55;;;;;;;7.85;6.43;;;;;;;21.35;60.56;93661.25;4814040;29;20042;-92
2022/08/25 00:59:21;;;;;;;8.00;6.28;;;;;;;21.34;60.68;93654.28;4812656;29;20045;-91
2022/08/25 01:01:47;;;;;;;8.25;6.30;;;;;;;21.35;60.21;93655.03;4809564;29;20042;-91
2022/08/25 01:04:14;;;;;;;8.40;6.38;;;;;;;21.34;60.67;93654.28;4813550;29;20152;-92
2022/08/25 01:06:43;;;;;;;7.95;5.90;;;;;;;21.34;60.65;93657.03;4812943;29;20050;-91
2022/08/25 01:09:09;;;;;;;9.55;7.25;;;;;;;21.34;60.39;93665.28;4813042;29;20065;-91
2022/08/25 01:11:34;;;;;;;8.75;6.50;;;;;;;21.36;60.21;93660.00;4814243;29;20083;-92
2022/08/25 01:14:05;;;;;;;8.40;5.80;;;;;;;21.35;60.71;93663.25;4814651;29;20042;-91
2022/08/25 01:16:33;;;;;;;7.30;6.35;;;;;;;21.35;60.54;93663.25;4812289;29;20068;-91
2022/08/25 01:18:59;;;;;;;8.77;6.72;;;;;;;21.34;60.72;93665.28;4827520;29;20299;-93
2022/08/25 01:21:26;;;;;;;8.35;6.57;;;;;;;21.35;60.56;93666.75;4827711;29;20057;-91
2022/08/25 01:23:51;;;;;;;9.60;6.20;;;;;;;21.36;60.56;93659.25;4810146;29;20071;-91
2022/08/25 01:26:20;;;;;;;8.65;6.00;;;;;;;21.36;60.63;93662.75;4795092;29;20054;-91
2022/08/25 01:31:31;;;;;;;8.60;6.43;;;;;;;21.35;60.61;93668.75;4799651;29;20073;-90
2022/08/25 01:33:57;;;;;;;8.02;6.82;;;;;;;21.34;60.67;93659.03;4818544;29;20046;-91
2022/08/25 01:36:22;;;;;;;8.13;6.70;;;;;;;21.36;60.86;93662.00;4830258;29;20057;-93
2022/08/25 01:38:49;;;;;;;9.23;6.60;;;;;;;21.36;60.85;93651.00;4828388;29;20041;-91
2022/08/25 01:41:16;;;;;;;8.80;6.88;;;;;;;21.33;60.80;93652.03;4830607;29;20120;-91
2022/08/25 01:43:42;;;;;;;10.23;6.53;;;;;;;21.35;60.50;93652.28;4816929;29;20034;-93
2022/08/25 01:46:07;;;;;;;8.20;6.47;;;;;;;21.36;60.84;93645.50;4812086;29;20064;-91
2022/08/25 01:48:33;;;;;;;7.40;5.78;;;;;;;21.33;60.63;93638.28;4812161;29;20087;-91
2022/08/25 01:50:59;;;;;;;9.93;6.82;;;;;;;21.33;60.87;93636.28;4827957;29;20102;-92
2022/08/25 01:53:28;;;;;;;8.95;6.78;;;;;;;21.33;60.75;93625.28;4821565;29;20105;-91
2022/08/25 01:56:04;;;;;;;7.53;6.65;;;;;;;21.33;60.74;93639.03;4827279;29;20427;-91
2022/08/25 01:58:32;;;;;;;9.93;7.15;;;;;;;21.32;60.79;93647.81;4860347;29;20090;-90
2022/08/25 02:01:00;;;;;;;8.60;6.82;;;;;;;21.33;60.70;93638.28;4825008;29;20562;-91
2022/08/25 02:03:26;;;;;;;7.53;6.68;;;;;;;21.34;60.81;93642.53;4821487;29;20045;-91
2022/08/25 02:05:52;;;;;;;7.55;6.70;;;;;;;21.33;60.67;93633.53;4830602;29;20544;-91
2022/08/25 02:08:17;;;;;;;10.40;7.07;;;;;;;21.34;60.79;93631.53;4830416;29;20052;-91
2022/08/25 02:10:45;;;;;;;8.00;6.63;;;;;;;21.33;60.75;93632.81;4831055;29;20512;-93
2022/08/25 02:13:10;;;;;;;10.40;7.13;;;;;;;21.34;60.86;93634.28;4818524;29;20046;-91
2022/08/25 02:15:40;;;;;;;8.18;6.28;;;;;;;21.34;61.06;93631.53;4808629;29;20098;-92
2022/08/25 02:18:06;;;;;;;7.00;6.30;;;;;;;21.34;60.94;93632.28;4817854;29;20073;-92
2022/08/25 02:20:31;;;;;;;9.07;6.55;;;;;;;21.31;60.95;93630.56;4811228;29;20045;-91
2022/08/25 02:22:57;;;;;;;10.63;7.88;;;;;;;21.33;60.94;93630.06;4805295;29;20048;-91
2022/08/25 02:25:23;;;;;;;8.82;7.22;;;;;;;21.32;61.13;93621.06;4821770;29;20534;-91
2022/08/25 02:27:49;;;;;;;10.75;7.75;;;;;;;21.33;60.99;93630.78;4792903;29;20057;-91
2022/08/25 02:30:14;;;;;;;9.55;7.70;;;;;;;21.33;61.21;93622.53;4808368;29;20051;-90
2022/08/25 02:32:41;;;;;;;9.10;7.65;;;;;;;21.31;60.94;93630.56;4808569;29;20039;-91
2022/08/25 02:35:06;;;;;;;9.52;7.80;;;;;;;21.32;60.84;93615.56;4807124;29;20045;-91
2022/08/25 02:37:32;;;;;;;8.90;7.07;;;;;;;21.33;60.93;93616.31;4811734;29;20042;-91
2022/08/25 02:39:58;;;;;;;8.07;6.90;;;;;;;21.33;60.94;93608.03;4811708;29;20515;-91
2022/08/25 02:42:25;;;;;;;8.25;6.65;;;;;;;21.32;60.89;93610.06;4824938;29;20102;-91
2022/08/25 02:44:51;;;;;;;9.13;7.00;;;;;;;21.34;60.94;93615.03;4825828;29;20050;-93
2022/08/25 02:47:17;;;;;;;10.00;7.68;;;;;;;21.33;61.04;93610.78;4810337;29;20547;-91
2022/08/25 02:49:43;;;;;;;8.93;7.50;;;;;;;21.33;60.55;93608.03;4824647;29;20042;-91
2022/08/25 02:52:09;;;;;;;8.32;6.72;;;;;;;21.32;60.82;93595.56;4826549;29;20503;-91
2022/08/25 02:54:35;;;;;;;8.48;6.70;;;;;;;21.31;60.89;93603.06;4804855;29;20043;-90
2022/08/25 02:57:01;;;;;;;7.65;6.85;;;;;;;21.33;60.93;93606.03;4813592;29;20123;-92
2022/08/25 02:59:26;;;;;;;9.13;7.20;;;;;;;21.33;60.80;93599.81;4791910;29;20035;-92
2022/08/25 03:01:52;;;;;;;8.45;6.72;;;;;;;21.32;60.81;93599.06;4823948;29;20506;-90
2022/08/25 03:04:17;;;;;;;8.27;6.80;;;;;;;21.32;60.89;93599.06;4821268;29;20034;-90
2022/08/25 03:06:43;;;;;;;8.35;6.15;;;;;;;21.34;60.83;93609.53;4829509;29;20049;-91
2022/08/25 03:09:08;;;;;;;8.70;7.07;;;;;;;21.33;60.89;93610.78;4845452;29;20048;-92
2022/08/25 03:11:35;;;;;;;7.53;6.78;;;;;;;21.33;60.80;93614.28;4845576;29;20042;-91
2022/08/25 03:14:01;;;;;;;8.73;7.05;;;;;;;21.31;60.85;93611.31;4841711;29;20073;-91
2022/08/25 03:16:27;;;;;;;10.00;7.25;;;;;;;21.33;60.80;93610.78;4844880;29;20436;-92
2022/08/25 03:18:53;;;;;;;8.13;6.95;;;;;;;21.33;60.88;93605.28;4812625;29;20050;-91
2022/08/25 03:21:19;;;;;;;9.60;7.60;;;;;;;21.33;60.93;93603.28;4810482;29;20526;-92
2022/08/25 03:23:45;;;;;;;10.60;7.65;;;;;;;21.32;61.01;93607.31;4809410;29;20060;-92
2022/08/25 03:28:54;;;;;;;9.27;6.95;;;;;;;21.32;60.83;93606.56;4842523;29;20133;-92
2022/08/25 03:31:21;;;;;;;11.65;7.10;;;;;;;21.30;60.89;93609.09;4810984;29;20073;-92
2022/08/25 03:33:47;;;;;;;8.50;6.90;;;;;;;21.32;60.63;93610.06;4815941;29;20054;-93
2022/08/25 03:36:13;;;;;;;9.65;7.70;;;;;;;21.32;60.90;93606.56;4828036;29;20042;-92
2022/08/25 03:38:39;;;;;;;11.20;8.20;;;;;;;21.32;60.87;93609.31;4816170;29;20035;-92
2022/08/25 03:41:20;;;;;;;10.63;7.43;;;;;;;21.32;61.14;93603.81;4838278;29;20037;-89
2022/08/25 03:43:45;;;;;;;12.15;7.47;;;;;;;21.32;60.77;93601.81;4824951;29;20042;-91
2022/08/25 03:46:22;;;;;;;16.48;8.45;;;;;;;21.32;61.03;93595.56;4832600;29;20053;-89
2022/08/25 03:48:50;;;;;;;10.73;7.60;;;;;;;21.32;60.73;93599.06;4805856;29;20345;-90
2022/08/25 03:51:25;;;;;;;10.60;7.50;;;;;;;21.33;60.74;93588.81;4839366;29;20054;-90
2022/08/25 03:54:06;;;;;;;9.68;7.82;;;;;;;21.32;60.78;93590.81;4819579;29;20045;-90
2022/08/25 03:56:32;;;;;;;9.40;7.43;;;;;;;21.35;60.92;93583.53;4870479;29;20071;-89
2022/08/25 03:59:00;;;;;;;11.05;7.13;;;;;;;21.34;60.98;93591.03;4843999;29;20021;-90
2022/08/25 04:01:25;;;;;;;11.40;8.35;;;;;;;21.35;60.79;93595.25;4847099;29;20093;-92
2022/08/25 04:04:01;;;;;;;10.60;7.80;;;;;;;21.34;60.81;93582.78;4828505;29;20070;-91
2022/08/25 04:06:27;;;;;;;18.13;9.10;;;;;;;21.35;61.18;93591.78;4806596;29;20054;-91
2022/08/25 04:08:56;;;;;;;46.60;13.18;;;;;;;21.30;62.17;93587.84;4792624;29;20054;-91
2022/08/25 04:11:23;;;;;;;26.75;11.35;;;;;;;21.27;62.80;93579.91;4814144;29;20059;-90
2022/08/25 04:13:50;;;;;;;22.25;12.05;;;;;;;21.27;63.24;93577.88;4818993;29;20287;-93
2022/08/25 04:16:18;;;;;;;22.88;12.15;;;;;;;21.24;63.45;93587.19;4796329;29;20467;-91
2022/08/25 04:18:44;;;;;;;27.92;13.90;;;;;;;21.23;63.57;93584.97;4797377;29;20151;-92
2022/08/25 04:21:11;;;;;;;20.75;12.68;;;;;;;21.20;64.00;93586.78;4784707;29;20458;-91
2022/08/25 04:23:39;;;;;;;20.40;12.30;;;;;;;21.21;63.94;93588.25;4807494;29;20066;-93
2022/08/25 04:26:10;;;;;;;20.27;12.55;;;;;;;21.20;64.20;93581.28;4794124;29;20042;-92
2022/08/25 04:28:35;;;;;;;25.67;13.07;;;;;;;21.19;64.29;93588.00;4781196;29;20066;-92
2022/08/25 04:31:01;;;;;;;19.40;12.18;;;;;;;21.17;64.23;93585.78;4804944;29;20069;-92
2022/08/25 04:33:26;;;;;;;19.88;12.02;;;;;;;21.20;64.07;93593.00;4804482;29;20107;-91
2022/08/25 04:35:52;;;;;;;27.70;12.43;;;;;;;21.15;64.51;93595.81;4782993;29;20102;-91
2022/08/25 04:38:17;;;;;;;33.85;15.60;;;;;;;21.16;65.29;93589.06;4796980;29;20053;-94
2022/08/25 04:40:43;;;;;;;31.42;18.10;;;;;;;21.19;64.92;93585.25;4781263;29;20043;-92
2022/08/25 04:43:08;;;;;;;25.25;15.55;;;;;;;21.20;64.99;93586.78;4794160;29;20632;-93
2022/08/25 04:45:38;;;;;;;25.65;18.48;;;;;;;21.22;64.98;93584.22;4771809;30;20163;-91
2022/08/25 04:48:06;;;;;;;30.70;19.88;;;;;;;21.20;64.83;93589.53;4752685;30;20051;-91
2022/08/25 04:50:32;;;;;;;37.78;14.90;;;;;;;21.18;64.93;93583.78;4731872;30;20111;-92
2022/08/25 04:53:00;;;;;;;28.60;14.23;;;;;;;21.23;65.02;93576.72;4763991;29;20047;-91
2022/08/25 04:55:26;;;;;;;22.95;16.00;;;;;;;21.04;65.54;93579.50;4759162;29;20136;-91
2022/08/25 04:57:52;;;;;;;28.23;17.27;;;;;;;21.02;65.87;93584.75;4736390;30;20063;-93
2022/08/25 05:00:18;;;;;;;40.92;21.17;;;;;;;21.00;65.97;93584.56;4761284;29;20047;-94
2022/08/25 05:02:46;;;;;;;35.17;18.15;;;;;;;20.93;66.13;93580.41;4758536;29;20051;-88
2022/08/25 05:05:12;;;;;;;32.33;20.77;;;;;;;20.87;66.71;93585.25;4759574;29;20223;-90
2022/08/25 05:07:38;;;;;;;27.45;19.20;;;;;;;20.86;66.83;93584.50;4752844;30;20079;-89
2022/08/25 05:10:03;;;;;;;28.55;16.52;;;;;;;20.76;67.30;93590.94;4756843;30;20039;-90
2022/08/25 05:12:29;;;;;;;25.55;16.33;;;;;;;20.80;67.31;93578.34;4787669;29;20074;-91
2022/08/25 05:15:49;;;;;;;26.92;18.27;;;;;;;20.82;67.03;93577.81;4771867;29;20705;-93
2022/08/25 05:17:50;;;;;;;45.38;16.92;;;;;;;20.74;67.43;93583.19;4808900;29;20070;-90
2022/08/25 05:20:15;;;;;;;24.90;16.83;;;;;;;20.71;67.63;93583.50;4805101;29;20062;-92
2022/08/25 05:22:44;;;;;;;31.42;19.15;;;;;;;20.67;67.57;93597.53;4794239;29;20486;-89
2022/08/25 05:25:09;;;;;;;37.35;19.45;;;;;;;20.68;67.79;93584.53;4819901;29;20073;-93
2022/08/25 05:27:35;;;;;;;34.92;20.48;;;;;;;20.67;67.83;93591.28;4812971;29;20141;-91
2022/08/25 05:30:00;;;;;;;29.02;19.63;;;;;;;20.60;68.03;93583.66;4802304;29;20463;-92
2022/08/25 05:32:26;;;;;;;36.95;20.45;;;;;;;20.70;67.83;93591.00;4797687;29;20034;-90
2022/08/25 05:34:52;;;;;;;34.53;20.00;;;;;;;20.71;67.72;93576.00;4793165;29;20054;-94
2022/08/25 05:37:17;;;;;;;48.08;21.02;;;;;;;20.66;68.08;93585.06;4794512;29;20137;-90
2022/08/25 05:39:43;;;;;;;34.65;17.90;;;;;;;20.63;68.11;93583.34;4792361;29;20065;-89
2022/08/25 05:42:17;;;;;;;33.13;17.80;;;;;;;20.63;67.94;93586.09;4792991;29;20464;-88
2022/08/25 05:44:42;;;;;;;32.33;17.95;;;;;;;20.62;68.08;93579.13;4794803;29;20041;-88
2022/08/25 05:47:09;;;;;;;26.27;15.77;;;;;;;20.58;68.52;93572.44;4822292;29;20053;-89
2022/08/25 05:49:34;;;;;;;24.90;16.83;;;;;;;20.57;68.40;93581.97;4822317;29;20030;-90
2022/08/25 05:52:00;;;;;;;27.75;16.70;;;;;;;20.58;68.29;93575.19;4793806;29;20086;-88
2022/08/25 05:54:25;;;;;;;74.10;22.63;;;;;;;20.59;68.39;93576.66;4792680;29;20042;-89
2022/08/25 05:56:51;;;;;;;61.15;20.30;;;;;;;20.52;68.67;93581.53;4803386;29;20250;-87
2022/08/25 05:59:16;;;;;;;49.95;19.77;;;;;;;20.52;68.83;93589.00;4806876;29;20053;-89
2022/08/25 06:04:26;;;;;;;37.38;18.63;;;;;;;20.50;69.04;93588.78;4825430;29;20107;-88
2022/08/25 06:06:54;;;;;;;33.38;18.70;;;;;;;20.47;69.30;93592.56;4788783;29;20054;-90
2022/08/25 06:09:21;;;;;;;29.67;18.00;;;;;;;20.47;69.57;93589.81;4809304;29;20125;-91
2022/08/25 06:11:46;;;;;;;29.95;18.00;;;;;;;20.51;69.50;93590.28;4794937;29;20066;-87
2022/08/25 06:14:13;;;;;;;31.85;18.77;;;;;;;20.52;69.01;93589.00;4827075;29;20065;-90
2022/08/25 06:16:39;;;;;;;29.30;17.98;;;;;;;20.55;68.98;93592.72;4795906;29;20047;-90
2022/08/25 06:19:05;;;;;;;27.02;18.35;;;;;;;20.54;68.89;93600.22;4773546;29;20112;-91
2022/08/25 06:21:31;;;;;;;26.33;16.73;;;;;;;20.52;69.07;93594.50;4775926;29;20051;-93
2022/08/25 06:23:57;;;;;;;27.48;16.45;;;;;;;20.47;69.03;93585.06;4792197;29;20038;-90
2022/08/25 06:26:32;;;;;;;29.48;16.38;;;;;;;20.50;68.96;93597.03;4808560;29;20054;-94
2022/08/25 06:28:59;;;;;;;26.98;15.32;;;;;;;20.51;68.84;93596.50;4808819;29;20128;-90
2022/08/25 06:31:26;;;;;;;29.35;16.40;;;;;;;20.48;69.10;93596.81;4783125;29;20046;-90
2022/08/25 06:33:52;;;;;;;27.02;16.33;;;;;;;20.50;69.32;93595.03;4808039;29;20038;-92
2022/08/25 06:36:18;;;;;;;34.95;17.65;;;;;;;20.49;69.08;93587.31;4796019;29;20058;-94
2022/08/25 06:38:45;;;;;;;36.63;17.67;;;;;;;20.51;68.96;93582.03;4798609;29;20038;-88
2022/08/25 06:41:13;;;;;;;43.28;25.25;;;;;;;20.49;69.08;93595.53;4839777;29;20044;-89
2022/08/25 06:43:59;;;;;;;50.80;24.65;;;;;;;20.55;68.81;93595.47;4838101;29;20052;-90
2022/08/25 06:46:25;;;;;;;46.78;24.60;;;;;;;20.50;69.21;93605.25;4828761;29;20132;-93
2022/08/25 06:48:51;;;;;;;66.40;27.70;;;;;;;20.46;69.21;93602.06;4826203;29;20141;-91
2022/08/25 06:51:19;;;;;;;47.33;24.58;;;;;;;20.50;69.14;93608.75;4844916;29;20073;-91
2022/08/25 06:53:51;;;;;;;56.30;24.85;;;;;;;20.50;69.02;93605.25;4822306;29;20144;-90
2022/08/25 06:56:20;;;;;;;44.25;24.02;;;;;;;20.57;68.86;93607.41;4848877;29;20170;-90
2022/08/25 06:58:46;;;;;;;41.72;22.55;;;;;;;20.52;69.20;93608.25;4849567;29;20060;-89
2022/08/25 07:01:15;;;;;;;34.13;21.55;;;;;;;20.50;69.60;93608.00;4804983;29;20042;-91
2022/08/25 07:03:43;;;;;;;42.80;23.60;;;;;;;20.55;69.28;93609.94;4786039;29;20046;-92
2022/08/25 07:06:12;;;;;;;32.75;20.27;;;;;;;20.52;69.58;93611.72;4826262;29;20075;-92
2022/08/25 07:08:55;;;;;;;44.45;22.17;;;;;;;20.58;69.57;93603.38;4803912;29;20043;-92
2022/08/25 07:11:33;;;;;;;39.63;21.20;;;;;;;20.59;69.42;93604.88;4782735;29;20086;-90
2022/08/25 07:14:01;;;;;;;41.40;23.95;;;;;;;20.57;69.26;93601.19;4755629;29;20077;-90
2022/08/25 07:16:31;;;;;;;37.08;20.70;;;;;;;20.67;69.16;93596.78;4761856;29;20051;-91
2022/08/25 07:18:58;;;;;;;31.95;19.92;;;;;;;20.57;69.31;93601.91;4762309;30;20050;-91
2022/08/25 07:21:25;;;;;;;45.88;21.27;;;;;;;20.65;69.08;93599.31;4757103;29;20143;-91
2022/08/25 07:23:51;;;;;;;40.20;20.73;;;;;;;20.61;69.23;93602.34;4759686;29;20087;-90
2022/08/25 07:26:20;;;;;;;43.28;19.50;;;;;;;20.64;69.49;93597.81;4748676;29;20050;-91
2022/08/25 07:28:46;;;;;;;54.05;23.83;;;;;;;20.68;69.38;93606.50;4796340;29;20076;-90
2022/08/25 07:31:24;;;;;;;38.55;18.52;;;;;;;20.69;69.35;93599.75;4782403;29;20047;-92
2022/08/25 07:36:33;;;;;;;39.00;19.17;;;;;;;20.69;69.71;93605.25;4792650;29;20979;-91
2022/08/25 07:38:59;;;;;;;29.35;16.63;;;;;;;20.64;69.74;93604.06;4809973;29;20065;-91
2022/08/25 07:41:27;;;;;;;24.70;16.25;;;;;;;20.64;69.93;93597.81;4780169;29;20511;-91
2022/08/25 07:43:58;;;;;;;31.63;16.75;;;;;;;20.65;69.86;93597.31;4790737;29;20111;-90
2022/08/25 07:46:24;;;;;;;32.13;16.00;;;;;;;20.68;69.92;93601.03;4798139;29;20059;-91
2022/08/25 07:48:50;;;;;;;26.25;15.48;;;;;;;20.62;69.94;93598.34;4787321;29;20050;-89
2022/08/25 07:51:16;;;;;;;26.08;14.52;;;;;;;20.60;70.19;93603.63;4779885;29;20113;-88
2022/08/25 07:53:42;;;;;;;20.70;13.75;;;;;;;20.63;70.22;93607.34;4783747;29;20054;-88
2022/08/25 07:56:11;;;;;;;19.80;13.45;;;;;;;20.68;69.81;93607.25;4802402;29;20434;-88
2022/08/25 07:58:37;;;;;;;21.80;15.38;;;;;;;20.64;69.85;93606.81;4785210;29;20046;-90
2022/08/25 08:01:03;;;;;;;22.00;11.70;;;;;;;20.69;69.63;93608.75;4790968;29;20059;-92
2022/08/25 08:03:33;;;;;;;26.90;12.45;;;;;;;20.70;69.63;93612.97;4765196;29;20142;-92
2022/08/25 08:05:59;;;;;;;22.48;14.55;;;;;;;20.73;69.57;93606.44;4789337;29;20071;-90
2022/08/25 08:08:25;;;;;;;30.45;19.08;;;;;;;20.73;69.73;93606.44;4788670;29;20851;-88
2022/08/25 08:10:52;;;;;;;28.83;19.60;;;;;;;20.77;69.60;93604.16;4787113;29;20047;-91
2022/08/25 08:13:26;;;;;;;41.53;28.45;;;;;;;20.81;69.45;93612.06;4801665;29;20525;-92
2022/08/25 08:15:52;;;;;;;58.33;37.40;;;;;;;20.81;69.39;93609.31;4780430;29;20540;-90
2022/08/25 08:18:18;;;;;;;51.53;35.33;;;;;;;20.82;69.31;93608.06;4809703;29;20133;-91
2022/08/25 08:21:13;;;;;;;68.88;43.33;;;;;;;20.83;69.45;93615.78;4814593;29;20084;-94
2022/08/25 08:23:41;;;;;;;71.32;44.97;;;;;;;20.88;69.38;93616.97;4797083;29;20062;-90
2022/08/25 08:26:22;;;;;;;66.82;41.80;;;;;;;20.88;69.07;93614.97;4771529;29;20043;-91
2022/08/25 08:28:58;;;;;;;52.65;36.78;;;;;;;20.92;69.15;93611.16;4793243;29;20058;-92
2022/08/25 08:31:42;;;;;;;;;;;;;;;20.92;69.10;93605.66;4799475;29;20074;-93
2022/08/25 08:34:07;;;;;;;38.80;26.10;;;;;;;20.90;69.15;93619.94;4783730;29;19925;-91
2022/08/25 08:36:33;;;;;;;46.22;28.27;;;;;;;20.88;69.61;93611.47;4783763;29;20119;-92
2022/08/25 08:38:59;;;;;;;118.65;33.03;;;;;;;20.85;69.67;93612.50;4764948;30;20520;-91
2022/08/25 08:45:00;;;;;;;35.75;17.23;;;;;;;20.82;70.11;93603.28;4798175;29;20054;-93
2022/08/25 08:51:47;;;;;;;36.22;19.77;;;;;;;20.85;70.00;93601.50;4755983;29;20056;-94
2022/08/25 08:54:19;;;;;;;41.60;16.70;;;;;;;20.87;69.78;93602.47;4749425;29;20071;-91
2022/08/25 08:56:46;;;;;;;27.90;13.77;;;;;;;20.85;70.45;93596.03;4773114;29;20051;-89
2022/08/25 08:59:20;;;;;;;27.50;14.88;;;;;;;20.87;69.92;93594.22;4755228;29;20108;-92
2022/08/25 09:02:12;;;;;;;26.90;12.93;;;;;;;20.91;69.87;93588.44;4773928;29;20056;-91
2022/08/25 09:05:08;;;;;;;24.35;12.85;;;;;;;20.93;70.03;93591.41;4736342;30;20048;-91
2022/08/25 09:07:50;;;;;;;22.10;12.18;;;;;;;20.93;69.75;93582.44;5026642;23;20081;-92
2022/08/25 09:10:35;;;;;;;;;;;;;;;;;;;;;
2022/08/25 09:13:53;;;;;;;;;;;;;;;;;;;;;
2022/08/25 09:16:53;;;;;;;65.30;35.42;;;;;;;20.98;69.81;93587.84;4757100;29;20377;-91
2022/08/25 09:19:23;;;;;;;138.93;85.57;;;;;;;20.97;70.42;93585.63;4804982;29;20048;-91
2022/08/25 09:22:04;;;;;;;165.95;109.85;;;;;;;20.96;70.43;93587.63;4805306;29;20050;-91
2022/08/25 09:24:50;;;;;;;123.43;80.97;;;;;;;21.00;70.10;93592.81;4778010;29;20105;-90
2022/08/25 09:27:24;;;;;;;95.45;60.78;;;;;;;20.99;70.33;93592.06;4804109;29;20047;-93
2022/08/25 09:29:59;;;;;;;74.20;48.92;;;;;;;20.99;70.31;93580.34;4818378;29;20095;-90
2022/08/25 09:32:28;;;;;;;66.30;42.60;;;;;;;21.00;70.40;93590.78;4792188;29;20050;-91
2022/08/25 09:34:54;;;;;;;129.32;45.97;;;;;;;21.00;70.58;93590.06;4773787;29;20259;-91
2022/08/25 09:37:20;;;;;;;88.13;37.40;;;;;;;20.97;70.62;93588.38;4779082;29;20039;-89
2022/08/25 09:39:48;;;;;;;122.13;55.50;;;;;;;20.96;70.44;93584.13;4798866;29;20039;-89
2022/08/25 09:42:13;;;;;;;103.70;47.55;;;;;;;20.99;70.25;93566.59;4796727;29;20046;-89
2022/08/25 09:44:43;;;;;;;98.90;43.30;;;;;;;21.00;70.39;93579.06;4795507;29;20054;-87
2022/08/25 09:47:17;;;;;;;77.75;35.65;;;;;;;21.01;70.08;93567.53;4775261;29;20054;-89
2022/08/25 09:49:49;;;;;;;50.40;24.20;;;;;;;21.04;69.96;93571.25;4814735;29;20565;-88
2022/08/25 09:52:27;;;;;;;61.35;20.00;;;;;;;20.99;70.03;93575.59;4826770;29;20061;-91
2022/08/25 09:54:54;;;;;;;33.65;15.77;;;;;;;21.00;70.28;93571.53;4857663;29;20064;-89
2022/08/25 09:57:43;;;;;;;25.08;14.63;;;;;;;21.00;70.13;93579.06;4860043;29;20579;-89
2022/08/25 10:00:14;;;;;;;19.13;13.05;;;;;;;20.95;70.45;93563.41;4844104;29;20049;-91
2022/08/25 10:02:41;;;;;;;17.48;11.93;;;;;;;20.96;70.68;93565.63;4880384;29;20041;-89
2022/08/25 10:05:24;;;;;;;19.40;11.85;;;;;;;20.95;70.90;93575.16;4827662;29;20052;-91
2022/08/25 10:08:00;;;;;;;20.15;11.82;;;;;;;20.99;70.60;93577.59;4863918;29;20060;-89
2022/08/25 10:10:33;;;;;;;17.92;10.32;;;;;;;20.99;70.86;93564.59;4824643;29;20047;-91
2022/08/25 10:13:00;;;;;;;17.10;9.80;;;;;;;21.00;71.18;93566.06;4842490;29;20053;-92
2022/08/25 10:15:27;;;;;;;13.25;9.05;;;;;;;21.00;70.89;93557.09;4845481;29;20048;-91
2022/08/25 10:17:54;;;;;;;14.98;10.05;;;;;;;21.00;71.05;93557.09;4876377;29;20500;-93
2022/08/25 10:20:21;;;;;;;16.92;9.25;;;;;;;21.05;70.51;93558.97;4846451;29;20045;-92
2022/08/25 10:22:47;;;;;;;14.27;8.45;;;;;;;21.05;70.87;93562.47;4830769;29;20559;-92
2022/08/25 10:25:15;;;;;;;14.25;9.55;;;;;;;21.07;70.75;93562.69;4829904;29;20053;-91
2022/08/25 10:28:00;;;;;;;12.05;9.57;;;;;;;21.05;70.43;93567.22;4845890;29;20124;-91
2022/08/25 10:30:44;;;;;;;15.98;8.98;;;;;;;21.04;70.45;93557.50;4841799;29;20053;-93
2022/08/25 10:33:21;;;;;;;13.63;8.55;;;;;;;21.05;70.76;93561.72;4857863;29;20398;-93
2022/08/25 10:36:20;;;;;;;14.43;10.45;;;;;;;21.07;70.77;93551.69;4841867;29;20672;-91
2022/08/25 10:38:58;;;;;;;18.77;9.68;;;;;;;21.07;70.92;93551.69;4841325;29;20580;-92
2022/08/25 10:42:01;;;;;;;12.98;8.90;;;;;;;21.09;70.65;93549.16;4844409;29;20435;-92
2022/08/25 10:48:01;;;;;;;13.30;9.40;;;;;;;21.14;70.27;93547.59;4852114;24;20108;-91
2022/08/25 10:50:39;;;;;;;32.85;15.43;;;;;;;21.14;70.27;93553.09;4862464;29;20742;-94
2022/08/25 10:53:29;;;;;;;16.02;9.18;;;;;;;21.14;70.55;93542.09;4847610;29;20460;-91
2022/08/25 10:56:05;;;;;;;24.80;10.70;;;;;;;21.12;70.68;93534.38;4844580;29;20045;-93
2022/08/25 10:58:53;;;;;;;34.90;11.93;;;;;;;21.12;70.52;93537.13;4850065;29;20452;-94
2022/08/25 11:01:52;;;;;;;35.85;11.43;;;;;;;21.14;70.54;93529.09;4851272;29;20049;-94
2022/08/25 11:04:39;;;;;;;30.98;11.48;;;;;;;21.15;70.54;93532.59;4865471;29;20333;-92
2022/08/25 11:07:09;;;;;;;42.55;13.57;;;;;;;21.15;70.49;93527.84;4835486;29;20675;-93
2022/08/25 11:09:38;;;;;;;40.75;15.75;;;;;;;21.19;70.39;93524.78;4843081;29;20136;-94
2022/08/25 11:12:05;;;;;;;60.42;27.40;;;;;;;21.20;70.42;93518.78;4853827;29;20049;-90
2022/08/25 11:14:31;;;;;;;55.20;27.15;;;;;;;21.20;70.29;93518.78;4867373;29;20596;-94
2022/08/25 11:17:00;;;;;;;45.20;23.52;;;;;;;21.23;70.21;93514.22;4883503;29;20048;-91
2022/08/25 11:19:34;;;;;;;50.03;21.45;;;;;;;21.22;70.09;93514.78;4836576;29;20175;-92
2022/08/25 11:22:33;;;;;;;44.35;21.20;;;;;;;21.22;70.22;93507.22;4821466;29;20078;-92
2022/08/25 11:25:37;;;;;;;40.75;22.33;;;;;;;21.23;70.61;93516.97;4879065;29;20045;-92
2022/08/25 11:28:14;;;;;;;39.28;21.85;;;;;;;;;;4851859;29;20058;-93
2022/08/25 11:30:40;;;;;;;37.38;22.70;;;;;;;21.26;70.50;93507.66;4841701;29;20094;-87
2022/08/25 11:33:05;;;;;;;37.88;20.42;;;;;;;21.31;70.55;93514.34;4830892;29;20052;-91
2022/08/25 11:35:32;;;;;;;35.05;19.35;;;;;;;21.33;70.22;93514.56;4830284;29;20079;-89
2022/08/25 11:38:34;;;;;;;43.70;22.58;;;;;;;21.30;69.92;93508.09;4827232;29;20054;-94
2022/08/25 11:41:37;;;;;;;41.40;22.60;;;;;;;21.29;69.90;93514.88;4848474;29;20046;-93
2022/08/25 11:44:25;;;;;;;58.92;28.35;;;;;;;21.31;70.06;93508.84;4873145;29;20065;-91
2022/08/25 11:47:00;;;;;;;71.72;40.03;;;;;;;21.29;70.09;93506.63;4845858;29;20445;-91
2022/08/25 11:49:52;;;;;;;60.70;34.10;;;;;;;21.28;70.41;93502.38;4880816;29;20650;-93
2022/08/25 11:52:32;;;;;;;67.72;37.83;;;;;;;21.35;69.86;93503.78;4859599;29;20461;-92
2022/08/25 11:55:06;;;;;;;59.15;35.03;;;;;;;21.33;69.77;93509.78;4859342;29;20049;-92
2022/08/25 11:57:32;;;;;;;51.42;31.27;;;;;;;21.36;69.62;93505.25;4837180;29;20471;-92
2022/08/25 12:00:09;;;;;;;53.60;27.63;;;;;;;21.34;70.33;93508.53;4843255;29;20053;-91
2022/08/25 12:02:38;;;;;;;64.43;28.30;;;;;;;21.40;69.79;93508.44;4820735;29;20168;-94